Time;durP1;ratioP1;P1;durP2;ratioP2;P2;SDS_P1;SDS_P2;PMS_P1;PMS_P2;Temp;Humidity;BMP_temperature;BMP_pressure;BME280_temperature;BME280_humidity;BME280_pressure;Samples;Min_cycle;Max_cycle;Signal;HPM_P1;HPM_P2
2022/03/30 00:01:53;;;;;;;24.97;10.30;;;8.70;74.60;;;;;;5057203;28;20218;-82
2022/03/30 00:04:19;;;;;;;25.57;10.07;;;8.70;75.30;;;;;;5058327;28;20318;-82
2022/03/30 00:06:45;;;;;;;18.27;9.30;;;8.70;74.60;;;;;;5058611;28;20208;-82
2022/03/30 00:09:10;;;;;;;26.00;10.57;;;8.70;75.30;;;;;;5057161;28;20253;-82
2022/03/30 00:11:36;;;;;;;26.60;9.50;;;8.70;75.30;;;;;;5057979;28;20686;-82
2022/03/30 00:14:02;;;;;;;19.70;10.70;;;;;;;;;;5058382;28;20219;-82
2022/03/30 00:16:28;;;;;;;22.57;10.60;;;8.60;74.50;;;;;;5058529;28;20175;-82
2022/03/30 00:18:53;;;;;;;18.27;10.10;;;8.60;75.20;;;;;;5058607;28;20184;-82
2022/03/30 00:21:19;;;;;;;19.97;9.13;;;8.60;74.80;;;;;;5057394;28;20189;-82
2022/03/30 00:23:45;;;;;;;16.97;9.80;;;;;;;;;;5058357;28;20184;-82
2022/03/30 00:26:11;;;;;;;18.80;9.93;;;8.60;74.50;;;;;;5057048;28;20274;-82
2022/03/30 00:28:37;;;;;;;18.80;9.90;;;;;;;;;;5058387;28;20227;-82
2022/03/30 00:31:03;;;;;;;22.13;10.37;;;8.70;74.60;;;;;;5056888;28;20176;-82
2022/03/30 00:33:29;;;;;;;24.63;9.50;;;8.70;75.00;;;;;;5056853;28;20185;-82
2022/03/30 00:35:55;;;;;;;17.17;9.13;;;;;;;;;;5057325;28;20178;-81
2022/03/30 00:38:21;;;;;;;17.53;8.87;;;8.60;74.50;;;;;;5057098;28;20238;-82
2022/03/30 00:40:48;;;;;;;23.30;9.53;;;8.60;75.30;;;;;;5058251;28;20188;-83
2022/03/30 00:43:14;;;;;;;15.97;9.13;;;8.60;75.80;;;;;;5059235;28;20653;-82
2022/03/30 00:45:40;;;;;;;22.27;9.43;;;8.50;76.80;;;;;;5059062;28;20209;-82
2022/03/30 00:48:07;;;;;;;20.57;9.60;;;8.50;75.80;;;;;;5058983;28;20237;-82
2022/03/30 00:50:33;;;;;;;17.40;9.17;;;8.50;76.60;;;;;;5057049;28;20175;-82
2022/03/30 00:52:58;;;;;;;25.07;9.80;;;8.50;76.50;;;;;;5057065;28;20182;-82
2022/03/30 00:55:25;;;;;;;18.03;10.30;;;8.50;76.90;;;;;;5056569;28;20183;-82
2022/03/30 00:57:53;;;;;;;24.50;9.00;;;8.50;76.20;;;;;;5057054;28;20195;-81
2022/03/30 01:00:19;;;;;;;21.23;9.33;;;8.50;77.00;;;;;;5057646;28;20185;-82
2022/03/30 01:02:48;;;;;;;20.87;9.23;;;8.40;77.20;;;;;;5055609;28;20184;-81
2022/03/30 01:05:15;;;;;;;19.53;10.23;;;8.40;77.70;;;;;;5055808;28;20211;-82
2022/03/30 01:07:42;;;;;;;16.57;9.07;;;8.40;77.60;;;;;;5056506;28;20608;-82
2022/03/30 01:10:10;;;;;;;17.10;9.87;;;8.30;78.40;;;;;;5057716;28;20167;-83
2022/03/30 01:12:39;;;;;;;15.37;8.53;;;8.30;78.60;;;;;;5057829;28;20206;-82
2022/03/30 01:15:06;;;;;;;15.67;9.87;;;8.30;78.70;;;;;;5058053;28;20275;-82
2022/03/30 01:17:31;;;;;;;21.40;10.23;;;8.30;78.20;;;;;;5056594;28;20660;-82
2022/03/30 01:19:57;;;;;;;19.13;9.30;;;8.30;78.70;;;;;;5056657;28;20190;-82
2022/03/30 01:22:23;;;;;;;14.10;8.07;;;8.30;79.00;;;;;;5056680;28;20187;-82
2022/03/30 01:24:49;;;;;;;23.43;9.47;;;8.30;79.80;;;;;;5058451;28;20203;-82
2022/03/30 01:27:15;;;;;;;21.80;9.80;;;8.30;79.90;;;;;;5056874;28;20195;-82
2022/03/30 01:32:26;;;;;;;18.50;9.20;;;8.30;79.60;;;;;;5058025;28;20182;-83
2022/03/30 01:34:57;;;;;;;19.77;10.07;;;8.30;80.10;;;;;;5057550;28;20657;-82
2022/03/30 01:37:23;;;;;;;15.40;8.10;;;8.40;79.40;;;;;;5058628;28;20196;-82
2022/03/30 01:39:50;;;;;;;17.00;9.30;;;8.40;79.40;;;;;;5058916;28;20221;-82
2022/03/30 01:42:16;;;;;;;19.17;9.30;;;8.40;79.10;;;;;;5065402;28;20179;-82
2022/03/30 01:44:42;;;;;;;18.30;8.83;;;8.50;79.50;;;;;;5072493;28;20225;-82
2022/03/30 01:47:10;;;;;;;21.70;8.73;;;8.50;79.40;;;;;;5072342;28;20191;-82
2022/03/30 01:49:37;;;;;;;17.23;8.30;;;8.50;79.20;;;;;;5059114;28;20182;-82
2022/03/30 01:52:03;;;;;;;19.30;9.80;;;8.40;79.00;;;;;;5060002;28;20180;-82
2022/03/30 01:54:34;;;;;;;16.37;8.43;;;8.40;79.20;;;;;;5057921;28;20222;-82
2022/03/30 01:56:59;;;;;;;15.47;8.43;;;8.30;79.50;;;;;;5057918;28;20190;-82
2022/03/30 01:59:25;;;;;;;16.63;8.50;;;8.30;79.90;;;;;;5062023;28;20183;-81
2022/03/30 02:01:52;;;;;;;20.67;8.80;;;8.30;80.10;;;;;;5066314;28;20184;-81
2022/03/30 02:04:18;;;;;;;17.23;8.43;;;8.30;80.60;;;;;;5064275;28;20207;-82
2022/03/30 02:06:44;;;;;;;15.83;8.67;;;8.20;80.70;;;;;;5064433;28;20307;-81
2022/03/30 02:09:12;;;;;;;19.10;8.70;;;8.20;81.20;;;;;;5063919;28;20179;-81
2022/03/30 02:11:39;;;;;;;21.43;9.17;;;8.20;81.60;;;;;;5058772;28;20175;-82
2022/03/30 02:14:05;;;;;;;21.50;9.13;;;8.20;81.90;;;;;;5057884;28;20326;-82
2022/03/30 02:16:31;;;;;;;17.70;9.13;;;8.20;82.20;;;;;;5061685;28;20179;-82
2022/03/30 02:18:57;;;;;;;18.87;9.50;;;8.20;82.30;;;;;;5063623;28;20204;-82
2022/03/30 02:21:24;;;;;;;21.33;9.13;;;8.20;82.70;;;;;;5062131;28;20660;-82
2022/03/30 02:23:51;;;;;;;18.53;8.70;;;8.10;82.00;;;;;;5061781;28;20184;-82
2022/03/30 02:26:17;;;;;;;25.00;9.97;;;8.20;82.70;;;;;;5061897;28;20174;-82
2022/03/30 02:28:44;;;;;;;18.87;9.40;;;8.20;82.70;;;;;;5063012;28;20203;-82
2022/03/30 02:31:10;;;;;;;18.63;10.07;;;8.20;82.90;;;;;;5063061;28;20171;-81
2022/03/30 02:33:36;;;;;;;16.53;8.10;;;8.20;82.70;;;;;;5062855;28;20228;-81
2022/03/30 02:36:03;;;;;;;19.47;9.43;;;8.20;82.80;;;;;;5063005;28;20180;-81
2022/03/30 02:38:29;;;;;;;18.40;8.30;;;8.10;83.00;;;;;;5063012;28;20257;-82
2022/03/30 02:40:55;;;;;;;25.67;9.27;;;8.10;83.10;;;;;;5061420;28;20183;-81
2022/03/30 02:43:20;;;;;;;26.43;8.30;;;8.10;83.00;;;;;;5061625;28;20191;-81
2022/03/30 02:45:47;;;;;;;21.20;8.87;;;8.10;83.10;;;;;;5062656;28;20201;-82
2022/03/30 02:48:19;;;;;;;13.77;7.60;;;8.20;83.10;;;;;;5062142;28;20195;-80
2022/03/30 02:50:55;;;;;;;16.53;8.10;;;8.10;83.20;;;;;;5062674;28;20176;-81
2022/03/30 02:53:22;;;;;;;15.57;7.73;;;8.10;83.60;;;;;;5061689;28;20197;-82
2022/03/30 02:55:48;;;;;;;13.47;8.23;;;8.00;84.10;;;;;;5061130;28;20190;-82
2022/03/30 02:58:14;;;;;;;22.43;8.80;;;8.00;84.50;;;;;;5060517;28;20634;-79
2022/03/30 03:00:41;;;;;;;20.93;8.10;;;8.00;84.80;;;;;;5061571;28;20263;-79
2022/03/30 03:03:08;;;;;;;15.97;8.30;;;8.00;85.00;;;;;;5061244;28;20611;-80
2022/03/30 03:05:38;;;;;;;17.13;9.67;;;8.00;85.40;;;;;;5060814;28;20677;-80
2022/03/30 03:08:08;;;;;;;25.13;8.80;;;8.00;85.60;;;;;;5059723;28;20234;-80
2022/03/30 03:10:36;;;;;;;18.93;8.80;;;7.90;86.10;;;;;;5059934;28;20213;-81
2022/03/30 03:13:06;;;;;;;18.77;7.97;;;7.90;86.30;;;;;;5060464;28;20642;-80
2022/03/30 03:15:33;;;;;;;22.47;10.57;;;7.90;86.30;;;;;;5061385;28;20172;-80
2022/03/30 03:18:01;;;;;;;19.50;9.30;;;7.90;86.70;;;;;;5060340;28;20204;-80
2022/03/30 03:20:28;;;;;;;14.43;8.33;;;7.90;87.00;;;;;;5061046;28;20184;-80
2022/03/30 03:22:54;;;;;;;18.17;8.67;;;7.90;86.80;;;;;;5060673;28;20178;-81
2022/03/30 03:25:21;;;;;;;17.40;8.70;;;8.00;86.40;;;;;;5061912;28;20224;-81
2022/03/30 03:27:47;;;;;;;22.50;8.97;;;8.00;86.80;;;;;;5061229;28;20222;-81
2022/03/30 03:30:14;;;;;;;17.20;8.93;;;8.10;86.60;;;;;;5060459;28;20213;-80
2022/03/30 03:32:41;;;;;;;20.03;8.80;;;8.10;86.50;;;;;;5065216;28;20547;-80
2022/03/30 03:35:09;;;;;;;19.27;8.47;;;8.10;86.50;;;;;;5069844;28;20175;-80
2022/03/30 03:37:40;;;;;;;18.53;8.50;;;8.10;86.50;;;;;;5062895;28;20249;-81
2022/03/30 03:40:07;;;;;;;12.10;7.87;;;8.10;86.50;;;;;;5058434;28;20644;-81
2022/03/30 03:42:33;;;;;;;21.93;8.20;;;8.10;86.50;;;;;;5058862;28;20177;-81
2022/03/30 03:44:59;;;;;;;19.87;8.43;;;8.10;87.10;;;;;;5059388;28;20203;-81
2022/03/30 03:47:25;;;;;;;20.13;9.13;;;8.10;86.50;;;;;;5059329;28;20199;-82
2022/03/30 03:49:51;;;;;;;17.27;8.90;;;8.10;87.00;;;;;;5057319;28;20176;-82
2022/03/30 03:52:17;;;;;;;20.83;9.00;;;8.00;87.60;;;;;;5057734;28;20189;-81
2022/03/30 03:54:42;;;;;;;19.80;9.97;;;8.00;88.40;;;;;;5057168;28;20182;-81
2022/03/30 03:57:09;;;;;;;22.60;10.20;;;7.90;88.50;;;;;;5058848;28;20190;-82
2022/03/30 03:59:35;;;;;;;19.90;9.23;;;8.00;88.60;;;;;;5057684;28;20182;-81
2022/03/30 04:02:04;;;;;;;19.03;9.60;;;8.00;88.70;;;;;;5057837;28;20179;-81
2022/03/30 04:04:30;;;;;;;17.87;9.33;;;7.90;89.00;;;;;;5058630;28;20594;-81
2022/03/30 04:06:56;;;;;;;24.93;9.37;;;7.90;89.50;;;;;;5057194;28;20194;-81
2022/03/30 04:09:21;;;;;;;20.13;9.57;;;7.90;90.00;;;;;;5058622;28;20190;-82
2022/03/30 04:11:47;;;;;;;22.80;10.03;;;7.90;90.00;;;;;;5059543;28;20174;-81
2022/03/30 04:14:15;;;;;;;17.00;8.87;;;7.90;90.00;;;;;;5058236;28;20176;-81
2022/03/30 04:16:42;;;;;;;19.60;9.37;;;7.80;90.20;;;;;;5057248;28;20211;-82
2022/03/30 04:19:08;;;;;;;15.37;8.70;;;7.80;90.20;;;;;;5057309;28;20183;-81
2022/03/30 04:21:33;;;;;;;21.07;9.87;;;7.80;90.50;;;;;;5058676;28;20184;-81
2022/03/30 04:23:59;;;;;;;22.37;10.03;;;7.80;90.60;;;;;;5057426;28;20180;-82
2022/03/30 04:26:25;;;;;;;17.50;9.77;;;7.80;90.90;;;;;;5058250;28;20629;-82
2022/03/30 04:28:50;;;;;;;22.93;10.07;;;7.80;91.20;;;;;;5057117;28;20184;-82
2022/03/30 04:31:16;;;;;;;22.57;10.13;;;7.70;91.40;;;;;;5057530;28;20215;-82
2022/03/30 04:33:42;;;;;;;24.03;10.00;;;7.70;91.90;;;;;;5057546;28;20205;-82
2022/03/30 04:36:07;;;;;;;17.03;9.37;;;7.70;92.10;;;;;;5057821;28;20182;-82
2022/03/30 04:38:34;;;;;;;21.97;9.30;;;7.60;92.50;;;;;;5057848;28;20276;-82
2022/03/30 04:41:00;;;;;;;24.23;10.20;;;7.60;92.90;;;;;;5058654;28;20572;-82
2022/03/30 04:43:27;;;;;;;20.00;9.67;;;7.60;93.40;;;;;;5061259;28;20183;-82
2022/03/30 04:45:54;;;;;;;16.77;9.10;;;7.50;93.90;;;;;;5070123;28;20215;-84
2022/03/30 04:48:20;;;;;;;17.27;9.27;;;7.50;94.10;;;;;;5056985;28;20206;-81
2022/03/30 04:50:46;;;;;;;16.30;9.67;;;7.50;94.40;;;;;;5058050;28;20171;-82
2022/03/30 04:53:11;;;;;;;22.03;9.43;;;7.50;94.80;;;;;;5058155;28;20197;-82
2022/03/30 04:55:37;;;;;;;20.50;11.17;;;7.40;95.10;;;;;;5056942;28;20335;-82
2022/03/30 04:58:04;;;;;;;28.13;11.10;;;7.50;95.50;;;;;;5056889;28;20550;-83
2022/03/30 05:00:29;;;;;;;22.70;9.70;;;7.40;95.90;;;;;;5058554;28;20190;-83
2022/03/30 05:02:55;;;;;;;19.17;11.17;;;7.30;96.50;;;;;;5058758;28;20169;-83
2022/03/30 05:05:21;;;;;;;22.67;10.03;;;7.30;96.90;;;;;;5060243;28;20207;-83
2022/03/30 05:07:46;;;;;;;25.60;11.27;;;7.40;97.20;;;;;;5060701;28;20200;-82
2022/03/30 05:10:14;;;;;;;21.83;9.97;;;7.30;97.50;;;;;;5057717;28;20171;-82
2022/03/30 05:12:40;;;;;;;13.57;9.07;;;7.30;97.80;;;;;;5058532;28;20166;-82
2022/03/30 05:15:09;;;;;;;21.47;9.47;;;7.30;98.20;;;;;;5059300;28;20175;-83
2022/03/30 05:17:37;;;;;;;16.70;9.80;;;7.30;98.70;;;;;;5058413;28;20201;-82
2022/03/30 05:20:04;;;;;;;23.13;9.83;;;7.20;99.10;;;;;;5058752;28;20182;-82
2022/03/30 05:22:30;;;;;;;22.40;10.77;;;7.20;99.50;;;;;;5064484;28;20187;-81
2022/03/30 05:24:56;;;;;;;19.80;10.13;;;7.20;99.80;;;;;;5072770;28;20202;-81
2022/03/30 05:27:22;;;;;;;25.37;10.23;;;7.20;99.90;;;;;;5070764;28;20186;-81
2022/03/30 05:29:48;;;;;;;21.00;9.00;;;7.30;99.90;;;;;;5070406;28;20175;-80
2022/03/30 05:32:14;;;;;;;27.70;10.93;;;7.30;99.90;;;;;;5059998;28;20642;-81
2022/03/30 05:34:40;;;;;;;29.43;10.90;;;7.40;99.90;;;;;;5056811;28;20266;-81
2022/03/30 05:37:06;;;;;;;27.33;9.77;;;7.40;99.90;;;;;;5057189;28;20542;-82
2022/03/30 05:39:32;;;;;;;30.57;10.40;;;7.40;99.90;;;;;;5057438;28;20189;-81
2022/03/30 05:41:57;;;;;;;36.63;11.13;;;7.40;99.90;;;;;;5057511;28;20194;-82
2022/03/30 05:44:23;;;;;;;25.60;11.43;;;7.50;99.90;;;;;;5057418;28;20260;-81
2022/03/30 05:46:49;;;;;;;31.37;11.77;;;7.50;99.90;;;;;;5057602;28;20278;-82
2022/03/30 05:49:16;;;;;;;23.53;11.63;;;7.60;99.90;;;;;;5059411;28;20226;-81
2022/03/30 05:51:42;;;;;;;23.20;11.20;;;7.60;99.90;;;;;;5062861;28;20194;-81
2022/03/30 05:54:08;;;;;;;25.60;12.23;;;7.70;99.90;;;;;;5060978;28;20205;-81
2022/03/30 05:59:17;;;;;;;26.00;11.83;;;7.90;99.90;;;;;;5062320;28;20214;-81
2022/03/30 06:01:43;;;;;;;18.07;9.70;;;7.90;99.90;;;;;;5062744;28;20264;-81
2022/03/30 06:04:09;;;;;;;24.70;10.10;;;8.00;99.90;;;;;;5061221;28;20227;-81
2022/03/30 06:06:34;;;;;;;22.87;10.40;;;8.10;99.90;;;;;;5060763;28;20182;-81
2022/03/30 06:09:04;;;;;;;17.97;9.47;;;8.20;99.90;;;;;;5060437;28;20558;-81
2022/03/30 06:11:29;;;;;;;31.17;10.33;;;8.30;99.90;;;;;;5062709;28;20170;-81
2022/03/30 06:13:58;;;;;;;31.73;9.70;;;8.30;99.90;;;;;;5061094;28;20281;-80
2022/03/30 06:16:24;;;;;;;29.97;9.27;;;8.40;99.90;;;;;;5061828;28;20613;-81
2022/03/30 06:18:50;;;;;;;24.67;9.20;;;8.50;99.90;;;;;;5062177;28;20185;-81
2022/03/30 06:21:16;;;;;;;20.63;9.13;;;8.50;99.90;;;;;;5060741;28;20178;-80
2022/03/30 06:23:42;;;;;;;20.70;8.60;;;8.60;99.90;;;;;;5061881;28;20171;-80
2022/03/30 06:26:08;;;;;;;20.90;9.33;;;8.60;99.90;;;;;;5062003;28;20199;-81
2022/03/30 06:28:34;;;;;;;21.43;9.43;;;8.60;99.90;;;;;;5063271;28;20251;-81
2022/03/30 06:31:00;;;;;;;25.20;8.20;;;8.50;99.90;;;;;;5062189;28;20243;-81
2022/03/30 06:33:26;;;;;;;26.23;10.87;;;8.50;99.90;;;;;;5076188;28;20196;-80
2022/03/30 06:35:52;;;;;;;35.87;9.83;;;8.50;99.90;;;;;;5070518;28;20187;-80
2022/03/30 06:38:17;;;;;;;27.77;11.27;;;8.50;99.90;;;;;;5064131;28;20256;-80
2022/03/30 06:40:47;;;;;;;21.63;10.20;;;8.50;99.90;;;;;;5062814;28;20178;-82
2022/03/30 06:43:13;;;;;;;31.23;10.63;;;8.50;99.90;;;;;;5061781;28;20178;-80
2022/03/30 06:45:39;;;;;;;24.60;9.90;;;8.60;99.90;;;;;;5064230;28;20281;-80
2022/03/30 06:48:06;;;;;;;31.57;11.23;;;8.60;99.90;;;;;;5067389;28;20189;-80
2022/03/30 06:50:32;;;;;;;27.70;7.87;;;8.70;99.90;;;;;;5064502;28;20257;-80
2022/03/30 06:52:59;;;;;;;35.80;10.10;;;8.80;99.90;;;;;;5060602;28;20184;-80
2022/03/30 06:55:25;;;;;;;23.17;8.57;;;8.90;99.90;;;;;;5061256;28;20183;-80
2022/03/30 06:57:51;;;;;;;24.37;9.07;;;9.00;99.90;;;;;;5062242;28;20199;-82
2022/03/30 07:00:17;;;;;;;47.03;18.87;;;9.10;99.90;;;;;;5062167;28;20197;-80
2022/03/30 07:02:43;;;;;;;26.20;8.97;;;9.20;99.90;;;;;;5059243;28;20184;-81
2022/03/30 07:05:10;;;;;;;18.53;8.83;;;9.30;99.90;;;;;;5062325;28;20284;-81
2022/03/30 07:10:23;;;;;;;24.40;8.30;;;9.50;99.90;;;;;;5062015;28;20160;-81
2022/03/30 07:12:50;;;;;;;23.53;7.53;;;9.70;99.90;;;;;;5061036;28;20184;-81
2022/03/30 07:15:18;;;;;;;29.17;9.80;;;9.70;99.90;;;;;;5060557;28;20243;-80
2022/03/30 07:17:55;;;;;;;30.80;8.97;;;9.80;99.90;;;;;;5061448;28;20639;-81
2022/03/30 07:20:23;;;;;;;34.97;12.77;;;9.90;99.90;;;;;;5060054;28;20186;-80
2022/03/30 07:22:49;;;;;;;38.73;14.37;;;10.00;99.90;;;;;;5060921;28;20188;-81
2022/03/30 07:25:17;;;;;;;41.90;15.80;;;10.10;99.90;;;;;;5059372;28;20216;-80
2022/03/30 07:27:48;;;;;;;27.33;9.87;;;10.10;99.90;;;;;;5058806;28;20203;-80
2022/03/30 07:30:15;;;;;;;27.50;8.93;;;10.10;99.90;;;;;;5060362;28;20207;-80
2022/03/30 07:32:44;;;;;;;35.23;15.00;;;10.20;99.90;;;;;;5059836;28;20231;-80
2022/03/30 07:35:12;;;;;;;69.33;25.83;;;10.20;99.90;;;;;;5060600;28;20174;-80
2022/03/30 07:37:39;;;;;;;50.80;19.97;;;10.30;99.90;;;;;;5058934;28;20204;-80
2022/03/30 07:40:07;;;;;;;38.40;14.53;;;10.30;99.90;;;;;;5060396;28;20177;-80
2022/03/30 07:42:33;;;;;;;42.33;16.77;;;10.40;99.90;;;;;;5059515;28;20216;-80
2022/03/30 07:44:59;;;;;;;22.70;7.10;;;10.50;99.90;;;;;;5063818;28;20201;-80
2022/03/30 07:47:25;;;;;;;53.97;19.47;;;10.50;99.90;;;;;;5060933;28;20204;-80
2022/03/30 07:49:52;;;;;;;37.27;13.50;;;10.60;99.90;;;;;;5060072;28;20177;-80
2022/03/30 07:52:18;;;;;;;110.33;41.77;;;10.70;99.90;;;;;;5062460;28;20223;-79
2022/03/30 07:54:44;;;;;;;56.63;20.30;;;10.80;99.90;;;;;;5063122;28;20211;-79
2022/03/30 07:57:10;;;;;;;98.17;36.83;;;10.80;99.90;;;;;;5059621;28;20205;-80
2022/03/30 07:59:35;;;;;;;24.30;7.63;;;10.70;99.90;;;;;;5060560;28;20181;-80
2022/03/30 08:02:02;;;;;;;29.90;6.53;;;10.70;99.90;;;;;;5060536;28;20635;-80
2022/03/30 08:04:27;;;;;;;19.00;5.33;;;10.70;99.90;;;;;;5060370;28;20213;-80
2022/03/30 08:06:53;;;;;;;17.47;4.87;;;10.70;99.90;;;;;;5061307;28;20193;-80
2022/03/30 08:09:19;;;;;;;19.53;5.87;;;10.50;99.90;;;;;;5059660;28;20197;-81
2022/03/30 08:11:45;;;;;;;16.57;5.80;;;10.40;99.90;;;;;;5059227;28;20181;-80
2022/03/30 08:14:12;;;;;;;24.27;6.37;;;10.40;99.90;;;;;;5059257;28;20259;-80
2022/03/30 08:16:41;;;;;;;28.77;6.67;;;10.40;99.90;;;;;;5060413;28;20165;-82
2022/03/30 08:19:08;;;;;;;26.13;7.37;;;10.30;99.90;;;;;;5059335;28;20170;-82
2022/03/30 08:24:20;;;;;;;31.47;8.90;;;10.40;99.90;;;;;;5059344;28;20212;-82
2022/03/30 08:26:46;;;;;;;18.73;7.40;;;10.40;99.90;;;;;;5058472;28;20205;-82
2022/03/30 08:29:12;;;;;;;28.97;8.33;;;10.40;99.90;;;;;;5058869;28;20178;-82
2022/03/30 08:31:38;;;;;;;20.47;7.00;;;10.60;99.90;;;;;;5066088;28;20201;-82
2022/03/30 08:34:03;;;;;;;18.47;8.77;;;10.50;99.90;;;;;;5065407;28;20195;-82
2022/03/30 08:36:29;;;;;;;26.27;7.80;;;10.50;99.90;;;;;;5066097;28;20176;-83
2022/03/30 08:39:00;;;;;;;21.13;6.87;;;10.60;99.90;;;;;;5067107;28;20174;-81
2022/03/30 08:41:25;;;;;;;20.20;7.33;;;10.60;99.90;;;;;;5065537;28;20166;-82
2022/03/30 08:43:52;;;;;;;33.27;8.43;;;10.60;99.90;;;;;;5064882;28;20178;-81
2022/03/30 08:46:18;;;;;;;18.83;6.30;;;10.60;99.90;;;;;;5063702;28;20209;-81
2022/03/30 08:48:44;;;;;;;22.87;6.07;;;10.60;99.90;;;;;;5061516;28;20196;-81
2022/03/30 08:51:10;;;;;;;30.60;9.07;;;10.60;99.90;;;;;;5057511;28;20204;-81
2022/03/30 08:53:36;;;;;;;26.07;9.60;;;10.50;99.90;;;;;;5056150;28;20170;-81
2022/03/30 08:56:02;;;;;;;26.30;7.23;;;10.60;99.90;;;;;;5055703;28;20181;-81
2022/03/30 08:58:28;;;;;;;25.53;8.43;;;10.70;99.90;;;;;;5056584;28;20200;-81
2022/03/30 09:01:06;;;;;;;26.27;8.13;;;10.80;99.90;;;;;;5055886;28;20595;-81
2022/03/30 09:03:33;;;;;;;16.77;5.43;;;10.80;99.90;;;;;;5057283;28;20204;-80
2022/03/30 09:05:58;;;;;;;18.03;6.63;;;10.90;99.90;;;;;;5057049;28;20247;-82
2022/03/30 09:08:27;;;;;;;20.83;6.63;;;10.70;99.90;;;;;;5057299;28;20213;-82
2022/03/30 09:10:55;;;;;;;26.00;6.00;;;10.80;99.90;;;;;;5057516;28;20165;-82
2022/03/30 09:13:21;;;;;;;16.53;5.53;;;10.80;99.90;;;;;;5057785;28;20169;-82
2022/03/30 09:15:49;;;;;;;20.93;5.83;;;10.90;99.90;;;;;;5056715;28;20185;-82
2022/03/30 09:18:15;;;;;;;26.40;6.30;;;10.80;99.90;;;;;;5056536;28;20758;-81
2022/03/30 09:20:46;;;;;;;23.90;6.13;;;10.80;99.90;;;;;;5056584;28;20663;-81
2022/03/30 09:23:14;;;;;;;20.33;5.77;;;10.70;99.90;;;;;;5056718;28;20204;-81
2022/03/30 09:25:44;;;;;;;18.47;6.03;;;10.70;99.90;;;;;;5056073;28;20752;-81
2022/03/30 09:28:10;;;;;;;10.10;4.93;;;10.70;99.90;;;;;;5057542;28;20209;-81
2022/03/30 09:30:37;;;;;;;24.53;5.70;;;10.60;99.90;;;;;;5055547;28;20201;-81
2022/03/30 09:33:03;;;;;;;16.53;4.57;;;10.50;99.90;;;;;;5055061;28;20647;-81
2022/03/30 09:35:33;;;;;;;19.73;5.70;;;10.50;99.90;;;;;;5056701;28;20177;-80
2022/03/30 09:38:09;;;;;;;22.90;5.17;;;10.40;99.90;;;;;;5055853;28;20209;-82
2022/03/30 09:40:44;;;;;;;24.00;5.73;;;10.50;99.90;;;;;;5055954;28;20166;-82
2022/03/30 09:43:25;;;;;;;16.63;5.30;;;10.50;99.90;;;;;;5055787;28;20672;-81
2022/03/30 09:46:03;;;;;;;23.43;6.60;;;10.60;99.90;;;;;;5057481;28;20192;-82
2022/03/30 09:48:31;;;;;;;16.47;5.73;;;10.60;99.90;;;;;;5057257;28;20193;-82
2022/03/30 09:50:58;;;;;;;23.87;5.80;;;10.60;99.90;;;;;;5056335;28;20174;-82
2022/03/30 09:53:30;;;;;;;15.87;6.33;;;10.60;99.90;;;;;;5056874;28;20188;-81
2022/03/30 09:56:08;;;;;;;20.50;5.27;;;10.60;99.90;;;;;;5057002;28;20173;-82
2022/03/30 09:58:36;;;;;;;20.97;5.33;;;10.60;99.90;;;;;;5055635;28;20261;-81
2022/03/30 10:01:03;;;;;;;15.87;5.73;;;10.60;99.90;;;;;;5056119;28;20181;-81
2022/03/30 10:03:51;;;;;;;17.73;5.63;;;10.60;99.90;;;;;;5055579;28;20187;-81
2022/03/30 10:06:30;;;;;;;17.47;5.67;;;10.60;99.90;;;;;;5057683;28;20201;-81
2022/03/30 10:08:57;;;;;;;17.20;5.17;;;10.70;99.90;;;;;;5056466;28;20547;-81
2022/03/30 10:11:25;;;;;;;19.40;5.97;;;10.70;99.90;;;;;;5058415;28;20235;-81
2022/03/30 10:13:56;;;;;;;19.07;5.90;;;10.80;99.90;;;;;;5060247;28;20513;-81
2022/03/30 10:16:27;;;;;;;21.50;6.60;;;10.90;99.90;;;;;;5067026;28;20173;-82
2022/03/30 10:18:53;;;;;;;18.97;5.90;;;10.80;99.90;;;;;;5070710;28;20180;-81
2022/03/30 10:21:26;;;;;;;13.63;5.53;;;10.80;99.90;;;;;;5071807;28;20174;-80
2022/03/30 10:24:16;;;;;;;18.63;5.27;;;10.90;99.90;;;;;;5060646;28;20168;-81
2022/03/30 10:27:06;;;;;;;19.73;5.90;;;10.90;99.90;;;;;;5058552;28;20158;-82
2022/03/30 10:29:33;;;;;;;20.50;5.87;;;10.80;99.90;;;;;;5055566;28;20268;-80
2022/03/30 10:32:21;;;;;;;17.33;6.07;;;10.60;99.90;;;;;;5056354;28;20166;-79
2022/03/30 10:34:53;;;;;;;20.07;5.87;;;10.60;99.90;;;;;;5056798;28;20180;-80
2022/03/30 10:37:26;;;;;;;22.77;6.77;;;10.30;99.90;;;;;;5060713;28;20196;-80
2022/03/30 10:40:03;;;;;;;25.50;7.33;;;10.20;99.90;;;;;;5059776;28;20189;-79
2022/03/30 10:42:54;;;;;;;18.23;5.97;;;10.10;99.90;;;;;;5060661;28;20248;-79
2022/03/30 10:45:30;;;;;;;20.53;6.20;;;10.10;99.90;;;;;;5058350;28;20185;-79
2022/03/30 10:48:17;;;;;;;25.63;6.40;;;10.10;99.90;;;;;;5059264;28;20209;-79
2022/03/30 10:50:47;;;;;;;28.27;6.53;;;10.20;99.90;;;;;;5059510;28;20177;-80
2022/03/30 10:53:31;;;;;;;28.60;6.87;;;10.10;99.90;;;;;;5059236;28;20177;-79
2022/03/30 10:56:08;;;;;;;18.97;6.47;;;10.10;99.90;;;;;;5062097;28;20226;-81
2022/03/30 10:58:55;;;;;;;14.87;6.23;;;10.10;99.90;;;;;;5061999;28;20542;-81
2022/03/30 11:01:38;;;;;;;25.30;6.93;;;10.00;99.90;;;;;;5061424;28;20173;-80
2022/03/30 11:04:17;;;;;;;18.87;6.40;;;10.00;99.90;;;;;;5061020;28;20178;-81
2022/03/30 11:07:06;;;;;;;24.03;9.33;;;10.10;99.90;;;;;;5061931;28;20192;-81
2022/03/30 11:09:33;;;;;;;23.03;6.73;;;10.10;99.90;;;;;;5062119;28;20265;-82
2022/03/30 11:12:05;;;;;;;23.83;6.57;;;10.10;99.90;;;;;;5063911;28;20165;-81
2022/03/30 11:14:34;;;;;;;22.37;6.80;;;10.20;99.90;;;;;;5063492;28;20712;-81
2022/03/30 11:17:02;;;;;;;29.67;7.63;;;10.30;99.90;;;;;;5062265;28;20679;-81
2022/03/30 11:19:55;;;;;;;23.17;7.10;;;10.20;99.90;;;;;;5063968;28;20174;-81
2022/03/30 11:22:28;;;;;;;15.50;6.90;;;10.30;99.90;;;;;;5061504;28;20189;-80
2022/03/30 11:25:07;;;;;;;18.03;6.93;;;10.40;99.90;;;;;;5062093;28;20287;-80
2022/03/30 11:27:33;;;;;;;23.53;7.37;;;10.40;99.90;;;;;;5062055;28;20582;-80
2022/03/30 11:30:20;;;;;;;19.40;7.23;;;10.40;99.90;;;;;;5061570;28;20168;-80
2022/03/30 11:32:51;;;;;;;19.77;7.67;;;10.40;99.90;;;;;;5061884;28;20311;-80
2022/03/30 11:35:19;;;;;;;20.43;7.63;;;10.60;99.90;;;;;;5062017;28;20197;-80
2022/03/30 11:37:54;;;;;;;17.40;6.40;;;10.60;99.90;;;;;;5061739;28;20193;-79
2022/03/30 11:40:22;;;;;;;22.27;7.17;;;10.60;99.90;;;;;;5062748;28;20165;-80
2022/03/30 11:42:54;;;;;;;24.57;8.17;;;10.70;99.90;;;;;;5060691;28;20263;-80
2022/03/30 11:45:23;;;;;;;28.50;6.93;;;10.60;99.90;;;;;;5063527;28;20286;-82
2022/03/30 11:47:54;;;;;;;21.20;7.23;;;10.50;99.90;;;;;;5063436;28;20198;-82
2022/03/30 11:50:30;;;;;;;17.27;6.97;;;10.40;99.90;;;;;;5064430;28;20176;-81
2022/03/30 11:52:59;;;;;;;17.93;7.10;;;10.10;99.90;;;;;;5064189;28;20158;-82
2022/03/30 11:55:25;;;;;;;17.10;6.60;;;9.90;99.90;;;;;;5063873;28;20184;-81
2022/03/30 11:57:52;;;;;;;21.37;7.90;;;9.70;99.90;;;;;;5062050;28;20201;-81
2022/03/30 12:00:21;;;;;;;13.90;6.90;;;9.70;99.90;;;;;;5063652;28;20257;-81
2022/03/30 12:02:46;;;;;;;27.40;11.87;;;9.60;99.90;;;;;;5061998;28;20549;-81
2022/03/30 12:05:12;;;;;;;24.77;9.33;;;9.70;99.90;;;;;;5063080;28;20205;-81
2022/03/30 12:07:39;;;;;;;24.07;11.07;;;9.80;99.90;;;;;;5063341;28;20710;-81
2022/03/30 12:10:11;;;;;;;28.97;11.50;;;9.80;99.90;;;;;;5071239;28;20178;-81
2022/03/30 12:12:37;;;;;;;31.37;12.20;;;9.70;99.90;;;;;;5074635;28;20212;-81
2022/03/30 12:15:14;;;;;;;28.13;10.23;;;9.60;99.90;;;;;;5064976;28;20177;-82
2022/03/30 12:17:40;;;;;;;21.27;9.33;;;9.60;99.90;;;;;;5062984;28;20199;-81
2022/03/30 12:20:08;;;;;;;22.70;7.83;;;9.70;99.90;;;;;;5062734;28;20595;-81
2022/03/30 12:22:35;;;;;;;24.83;8.60;;;9.90;99.90;;;;;;5065174;28;20169;-80
2022/03/30 12:25:01;;;;;;;19.00;8.20;;;10.10;99.90;;;;;;5064653;28;20272;-81
2022/03/30 12:27:27;;;;;;;25.23;9.73;;;10.20;99.90;;;;;;5062252;28;20594;-81
2022/03/30 12:29:57;;;;;;;21.40;9.20;;;10.10;99.90;;;;;;5061333;28;20657;-81
2022/03/30 12:32:24;;;;;;;19.40;8.50;;;10.00;99.90;;;;;;5062435;28;20173;-81
2022/03/30 12:35:04;;;;;;;20.50;9.37;;;10.00;99.90;;;;;;5061563;28;20177;-81
2022/03/30 12:37:30;;;;;;;15.63;8.43;;;10.00;99.90;;;;;;5061391;28;20193;-82
2022/03/30 12:40:08;;;;;;;17.97;10.13;;;10.10;99.90;;;;;;5061402;28;20182;-81
2022/03/30 12:42:34;;;;;;;15.50;7.77;;;10.10;99.90;;;;;;5060660;28;20188;-81
2022/03/30 12:45:10;;;;;;;16.17;8.70;;;10.10;99.90;;;;;;5064686;28;20198;-82
2022/03/30 12:47:59;;;;;;;19.17;8.97;;;10.30;99.90;;;;;;5061336;28;20193;-80
2022/03/30 12:50:35;;;;;;;14.63;8.67;;;10.30;99.90;;;;;;5060268;28;20542;-80
2022/03/30 12:53:15;;;;;;;20.77;8.30;;;10.50;99.90;;;;;;5059496;28;20173;-80
2022/03/30 12:55:47;;;;;;;21.57;8.20;;;10.50;99.90;;;;;;5059735;28;20222;-79
2022/03/30 12:58:24;;;;;;;17.43;9.27;;;10.50;99.90;;;;;;5071048;28;20190;-80
2022/03/30 13:00:55;;;;;;;12.83;8.07;;;10.50;99.90;;;;;;5066255;28;20283;-80